Time;durP1;ratioP1;P1;durP2;ratioP2;P2;SDS_P1;SDS_P2;PMS_P1;PMS_P2;Temp;Humidity;BMP_temperature;BMP_pressure;BME280_temperature;BME280_humidity;BME280_pressure;Samples;Min_cycle;Max_cycle;Signal;HPM_P1;HPM_P2
2021/11/21 00:00:15;;;;;;;18.83;10.02;;;8.00;75.90;;;;;;4405348;29;20057;-71
2021/11/21 00:02:54;;;;;;;17.52;10.55;;;8.00;75.90;;;;;;4405022;29;20457;-70
2021/11/21 00:05:12;;;;;;;18.40;10.75;;;8.00;76.00;;;;;;4405191;29;20133;-70
2021/11/21 00:07:28;;;;;;;16.92;10.27;;;8.00;76.00;;;;;;4403518;29;20103;-70
2021/11/21 00:09:45;;;;;;;20.20;10.40;;;8.00;76.00;;;;;;4405220;29;20055;-70
2021/11/21 00:12:01;;;;;;;20.83;10.77;;;7.90;76.10;;;;;;4389032;29;20055;-70
2021/11/21 00:14:20;;;;;;;20.63;10.48;;;7.90;76.10;;;;;;4403881;29;20997;-70
2021/11/21 00:16:41;;;;;;;20.25;10.75;;;7.90;76.30;;;;;;4403626;29;20503;-70
2021/11/21 00:18:57;;;;;;;17.77;10.25;;;7.90;76.40;;;;;;4405123;29;20074;-70
2021/11/21 00:21:13;;;;;;;20.77;11.38;;;7.90;76.40;;;;;;4404789;29;20054;-70
2021/11/21 00:23:30;;;;;;;21.58;10.93;;;7.90;76.50;;;;;;4404860;29;20506;-70
2021/11/21 00:25:46;;;;;;;19.77;11.45;;;7.80;76.50;;;;;;4403382;29;20074;-70
2021/11/21 00:28:03;;;;;;;19.42;11.43;;;7.80;76.60;;;;;;4403316;29;20051;-70
2021/11/21 00:30:22;;;;;;;21.13;11.48;;;7.80;76.70;;;;;;4403674;29;20059;-69
2021/11/21 00:32:40;;;;;;;20.40;11.20;;;7.80;76.80;;;;;;4404400;29;20075;-69
2021/11/21 00:34:56;;;;;;;21.42;11.75;;;7.80;76.80;;;;;;4403645;29;20449;-70
2021/11/21 00:37:13;;;;;;;21.77;12.02;;;7.70;76.80;;;;;;4403036;29;20085;-70
2021/11/21 00:39:30;;;;;;;21.73;11.50;;;7.70;76.70;;;;;;4404713;29;20439;-69
2021/11/21 00:41:46;;;;;;;20.92;12.23;;;7.70;76.80;;;;;;4404635;29;20081;-70
2021/11/21 00:44:05;;;;;;;19.23;11.27;;;7.60;76.80;;;;;;4403656;29;20074;-70
2021/11/21 00:46:24;;;;;;;19.70;10.85;;;7.60;77.00;;;;;;4404163;29;20058;-70
2021/11/21 00:48:42;;;;;;;20.70;11.13;;;7.50;77.10;;;;;;4404573;29;20447;-70
2021/11/21 00:51:01;;;;;;;18.35;10.07;;;7.50;77.20;;;;;;4402878;29;20503;-70
2021/11/21 00:53:18;;;;;;;21.35;11.77;;;7.50;77.10;;;;;;4402551;29;20126;-71
2021/11/21 00:55:39;;;;;;;19.52;10.88;;;7.50;77.10;;;;;;4403991;29;20520;-71
2021/11/21 00:57:55;;;;;;;21.05;11.52;;;7.50;77.10;;;;;;4403318;29;20499;-70
2021/11/21 01:00:15;;;;;;;20.80;11.40;;;7.40;77.10;;;;;;4404185;29;20053;-69
2021/11/21 01:02:32;;;;;;;19.15;10.63;;;7.40;77.30;;;;;;4403476;29;20050;-71
2021/11/21 01:04:52;;;;;;;18.15;10.35;;;7.30;77.20;;;;;;4403420;29;20078;-70
2021/11/21 01:07:09;;;;;;;21.25;10.45;;;7.30;77.20;;;;;;4403960;29;20063;-71
2021/11/21 01:09:26;;;;;;;22.52;10.65;;;7.30;77.40;;;;;;4404375;29;20055;-71
2021/11/21 01:11:44;;;;;;;18.75;10.52;;;7.30;77.50;;;;;;4401237;29;20082;-70
2021/11/21 01:14:04;;;;;;;18.48;10.93;;;7.30;77.40;;;;;;4402638;29;20070;-70
2021/11/21 01:16:20;;;;;;;18.98;10.73;;;7.20;77.40;;;;;;4402467;29;20051;-70
2021/11/21 01:18:37;;;;;;;21.52;11.20;;;7.20;78.30;;;;;;4402224;29;20492;-70
2021/11/21 01:20:56;;;;;;;20.33;11.30;;;7.10;77.50;;;;;;4402186;29;20053;-70
2021/11/21 01:23:14;;;;;;;19.90;10.55;;;7.10;77.40;;;;;;4402979;29;20097;-71
2021/11/21 01:25:31;;;;;;;21.27;11.65;;;7.10;77.70;;;;;;4400914;29;20526;-71
2021/11/21 01:27:48;;;;;;;20.90;11.13;;;7.10;77.70;;;;;;4402895;29;20216;-71
2021/11/21 01:30:08;;;;;;;20.42;11.13;;;7.10;77.70;;;;;;4404069;29;20035;-71
2021/11/21 01:32:25;;;;;;;18.73;10.45;;;7.10;77.70;;;;;;4404282;29;20075;-71
2021/11/21 01:34:42;;;;;;;18.00;10.52;;;7.00;77.50;;;;;;4401096;29;20506;-70
2021/11/21 01:37:00;;;;;;;19.63;10.60;;;7.00;77.60;;;;;;4400730;29;20095;-70
2021/11/21 01:39:16;;;;;;;19.00;10.55;;;6.90;77.70;;;;;;4400864;29;20466;-70
2021/11/21 01:41:34;;;;;;;18.88;10.70;;;6.90;77.70;;;;;;4401892;29;20501;-70
2021/11/21 01:43:50;;;;;;;19.55;10.50;;;6.90;77.90;;;;;;4402846;29;20051;-71
2021/11/21 01:46:08;;;;;;;19.88;9.95;;;6.80;78.00;;;;;;4401247;29;20126;-70
2021/11/21 01:48:24;;;;;;;17.65;9.80;;;6.80;78.00;;;;;;4402979;29;20750;-70
2021/11/21 01:50:45;;;;;;;18.42;10.32;;;6.80;77.90;;;;;;4402232;29;20070;-70
2021/11/21 01:53:06;;;;;;;20.08;10.52;;;6.80;78.60;;;;;;4402978;29;20059;-70
2021/11/21 01:55:25;;;;;;;18.88;10.23;;;6.70;77.80;;;;;;4403658;29;20126;-70
2021/11/21 01:57:42;;;;;;;21.10;10.07;;;6.70;77.80;;;;;;4404133;29;20047;-70
2021/11/21 02:00:02;;;;;;;19.88;11.00;;;6.70;77.70;;;;;;4402463;29;20074;-71
2021/11/21 02:02:27;;;;;;;22.30;11.25;;;6.60;77.60;;;;;;4402695;29;20062;-71
2021/11/21 02:04:43;;;;;;;21.73;10.48;;;6.60;77.80;;;;;;4403649;29;20572;-71
2021/11/21 02:07:00;;;;;;;21.40;10.93;;;6.50;78.00;;;;;;4407006;29;20051;-71
2021/11/21 02:09:18;;;;;;;19.45;10.30;;;6.50;78.00;;;;;;4405331;29;20498;-70
2021/11/21 02:11:35;;;;;;;20.08;10.32;;;6.50;78.30;;;;;;4406875;29;20065;-71
2021/11/21 02:13:52;;;;;;;16.00;9.40;;;6.50;78.40;;;;;;4406804;29;20085;-71
2021/11/21 02:16:10;;;;;;;21.42;10.75;;;6.50;78.30;;;;;;4405413;29;20070;-71
2021/11/21 02:18:27;;;;;;;15.93;9.57;;;6.50;78.30;;;;;;4406888;29;20418;-71
2021/11/21 02:20:47;;;;;;;19.45;10.00;;;6.50;78.10;;;;;;4405174;29;20129;-70
2021/11/21 02:23:05;;;;;;;20.40;10.25;;;6.50;78.10;;;;;;4405709;29;20065;-71
2021/11/21 02:25:22;;;;;;;17.02;9.60;;;6.50;78.10;;;;;;4406429;29;20491;-69
2021/11/21 02:27:41;;;;;;;16.88;9.75;;;6.50;78.20;;;;;;4405524;29;20089;-70
2021/11/21 02:29:59;;;;;;;15.75;8.90;;;6.40;78.20;;;;;;4404928;29;20059;-70
2021/11/21 02:32:16;;;;;;;19.33;9.40;;;6.40;78.20;;;;;;4406838;29;20478;-71
2021/11/21 02:34:32;;;;;;;17.05;9.30;;;6.40;78.10;;;;;;4404918;29;20085;-70
2021/11/21 02:36:51;;;;;;;17.38;9.50;;;6.40;78.10;;;;;;4405399;29;20609;-71
2021/11/21 02:39:08;;;;;;;16.52;9.45;;;6.40;78.20;;;;;;4406189;29;20062;-71
2021/11/21 02:41:24;;;;;;;17.00;10.07;;;6.40;78.10;;;;;;4406579;29;20081;-72
2021/11/21 02:43:43;;;;;;;20.00;9.63;;;6.40;78.00;;;;;;4406519;29;20483;-70
2021/11/21 02:45:59;;;;;;;18.17;10.88;;;6.30;78.00;;;;;;4406526;29;20061;-71
2021/11/21 02:48:16;;;;;;;16.17;8.98;;;6.30;78.10;;;;;;4404930;29;20074;-71
2021/11/21 02:50:36;;;;;;;16.17;9.68;;;6.30;78.10;;;;;;4406240;29;20130;-71
2021/11/21 02:52:56;;;;;;;15.30;8.50;;;6.30;78.10;;;;;;4405025;29;20510;-71
2021/11/21 02:55:12;;;;;;;19.02;10.20;;;6.30;78.40;;;;;;4406050;29;20472;-69
2021/11/21 02:57:29;;;;;;;16.02;9.13;;;6.30;78.40;;;;;;4406322;29;20062;-71
2021/11/21 02:59:45;;;;;;;17.05;9.18;;;6.20;78.50;;;;;;4405820;29;20070;-71
2021/11/21 03:02:05;;;;;;;19.08;10.10;;;6.30;78.50;;;;;;4405191;29;20078;-71
2021/11/21 03:04:25;;;;;;;18.70;8.73;;;6.30;78.50;;;;;;4404265;29;20476;-71
2021/11/21 03:06:41;;;;;;;15.35;8.85;;;6.30;78.40;;;;;;4406313;29;20491;-70
2021/11/21 03:08:59;;;;;;;19.85;9.15;;;6.30;78.30;;;;;;4404329;29;20074;-70
2021/11/21 03:11:28;;;;;;;18.00;8.82;;;6.30;78.20;;;;;;4406209;29;20058;-70
2021/11/21 03:13:45;;;;;;;18.13;9.65;;;6.30;78.30;;;;;;4405014;29;20050;-70
2021/11/21 03:16:01;;;;;;;17.88;9.45;;;6.30;78.40;;;;;;4402164;29;20351;-70
2021/11/21 03:18:19;;;;;;;18.98;9.35;;;6.30;78.40;;;;;;4402499;29;20118;-70
2021/11/21 03:20:38;;;;;;;17.42;9.05;;;6.20;78.40;;;;;;4404520;29;20130;-71
2021/11/21 03:22:56;;;;;;;18.05;9.48;;;6.30;78.50;;;;;;4404414;29;20066;-71
2021/11/21 03:25:14;;;;;;;18.58;9.15;;;6.30;78.50;;;;;;4402854;29;20051;-71
2021/11/21 03:27:30;;;;;;;17.23;8.45;;;6.30;79.20;;;;;;4404502;29;20093;-72
2021/11/21 03:29:47;;;;;;;18.45;9.10;;;6.30;79.10;;;;;;4404051;29;20074;-71
2021/11/21 03:32:06;;;;;;;18.60;8.57;;;6.30;78.20;;;;;;4389792;29;20055;-71
2021/11/21 03:34:23;;;;;;;16.38;8.30;;;6.20;78.00;;;;;;4405190;29;20057;-71
2021/11/21 03:36:43;;;;;;;16.33;8.93;;;6.20;78.10;;;;;;4404992;29;20074;-72
2021/11/21 03:39:00;;;;;;;18.42;8.75;;;6.20;78.10;;;;;;4403186;29;20047;-71
2021/11/21 03:41:20;;;;;;;17.13;9.52;;;6.20;78.00;;;;;;4404069;29;20054;-71
2021/11/21 03:43:37;;;;;;;17.40;9.02;;;6.10;77.70;;;;;;4403650;29;20078;-71
2021/11/21 03:45:53;;;;;;;18.15;8.65;;;6.10;78.70;;;;;;4404414;29;20051;-71
2021/11/21 03:48:09;;;;;;;14.60;7.97;;;6.10;77.90;;;;;;4402737;29;20441;-71
2021/11/21 03:50:27;;;;;;;26.42;9.13;;;6.00;77.90;;;;;;4404346;29;20477;-71
2021/11/21 03:52:45;;;;;;;16.42;8.32;;;6.00;78.00;;;;;;4403519;29;20082;-71
2021/11/21 03:55:01;;;;;;;15.32;8.70;;;5.90;78.00;;;;;;4404146;29;20047;-71
2021/11/21 03:57:21;;;;;;;16.30;8.10;;;6.00;78.00;;;;;;4403744;29;20526;-70
2021/11/21 03:59:38;;;;;;;13.40;7.50;;;5.90;78.00;;;;;;4403971;29;20595;-70
2021/11/21 04:01:58;;;;;;;18.48;8.73;;;5.90;78.00;;;;;;4403835;29;20066;-70
2021/11/21 04:04:18;;;;;;;15.95;8.18;;;5.90;77.90;;;;;;4403773;29;20074;-70
2021/11/21 04:06:34;;;;;;;16.92;8.90;;;5.80;77.80;;;;;;4387625;30;20073;-70
2021/11/21 04:08:51;;;;;;;18.30;9.65;;;5.80;78.00;;;;;;4386849;30;20499;-69
2021/11/21 04:11:07;;;;;;;15.45;8.35;;;5.80;78.10;;;;;;4388810;29;20105;-70
2021/11/21 04:13:25;;;;;;;17.13;8.45;;;5.80;78.10;;;;;;4386836;29;20468;-70
2021/11/21 04:15:41;;;;;;;15.60;8.48;;;5.80;78.10;;;;;;4387355;30;20049;-70
2021/11/21 04:17:58;;;;;;;13.80;7.78;;;5.80;78.10;;;;;;4388030;29;20055;-70
2021/11/21 04:20:18;;;;;;;17.35;8.52;;;5.80;78.10;;;;;;4387443;30;20057;-70
2021/11/21 04:22:34;;;;;;;15.68;9.07;;;5.80;78.00;;;;;;4386723;30;20051;-70
2021/11/21 04:24:51;;;;;;;16.95;9.13;;;5.80;78.10;;;;;;4388518;29;20054;-71
2021/11/21 04:27:07;;;;;;;13.88;8.10;;;5.80;78.10;;;;;;4387618;29;20075;-71
2021/11/21 04:29:26;;;;;;;17.20;7.90;;;5.80;78.10;;;;;;4388271;29;20431;-72
2021/11/21 04:31:43;;;;;;;14.88;7.53;;;5.80;78.20;;;;;;4386759;30;20074;-71
2021/11/21 04:33:59;;;;;;;13.88;8.35;;;5.70;78.00;;;;;;4387249;30;20077;-71
2021/11/21 04:36:19;;;;;;;13.07;7.43;;;5.80;78.00;;;;;;4386767;30;20130;-70
2021/11/21 04:38:36;;;;;;;14.57;8.38;;;5.70;77.80;;;;;;4387073;29;20074;-70
2021/11/21 04:40:55;;;;;;;15.05;7.63;;;5.70;78.00;;;;;;4386908;30;20070;-71
2021/11/21 04:43:12;;;;;;;15.95;8.30;;;5.70;78.10;;;;;;4387804;29;20051;-70
2021/11/21 04:45:32;;;;;;;15.75;7.93;;;5.70;78.10;;;;;;4387115;30;20120;-70
2021/11/21 04:47:49;;;;;;;16.33;8.25;;;5.70;78.20;;;;;;4386372;30;20057;-70
2021/11/21 04:50:07;;;;;;;17.98;7.85;;;5.70;78.20;;;;;;4386925;30;20078;-70
2021/11/21 04:52:27;;;;;;;14.20;7.45;;;5.70;78.10;;;;;;4386327;30;20079;-69
2021/11/21 04:54:44;;;;;;;16.17;8.25;;;5.70;78.20;;;;;;4386967;30;20058;-70
2021/11/21 04:57:00;;;;;;;13.77;7.07;;;5.70;78.10;;;;;;4387444;29;20077;-71
2021/11/21 04:59:17;;;;;;;12.60;7.15;;;5.70;78.10;;;;;;4386758;30;20086;-71
2021/11/21 05:01:35;;;;;;;14.10;7.22;;;5.70;78.10;;;;;;4386239;30;20122;-71
2021/11/21 05:03:52;;;;;;;13.27;7.00;;;5.70;78.00;;;;;;4388015;29;20130;-71
2021/11/21 05:06:08;;;;;;;14.15;7.32;;;5.70;78.00;;;;;;4386087;30;20082;-71
2021/11/21 05:08:25;;;;;;;13.82;7.57;;;5.60;77.80;;;;;;4387891;29;20051;-72
2021/11/21 05:10:41;;;;;;;12.65;7.00;;;5.70;77.80;;;;;;4387433;29;20062;-71
2021/11/21 05:12:58;;;;;;;14.50;7.15;;;5.60;78.20;;;;;;4387877;29;20083;-71
2021/11/21 05:15:18;;;;;;;14.20;7.75;;;5.60;77.80;;;;;;4387758;29;20134;-72
2021/11/21 05:17:36;;;;;;;12.70;7.38;;;5.60;77.80;;;;;;4386259;30;20051;-72
2021/11/21 05:19:52;;;;;;;13.95;7.00;;;5.60;77.90;;;;;;4386698;30;20475;-72
2021/11/21 05:22:09;;;;;;;17.15;7.65;;;5.60;77.90;;;;;;4386128;30;20050;-71
2021/11/21 05:24:27;;;;;;;14.52;8.30;;;5.60;77.80;;;;;;4386461;30;20611;-70
2021/11/21 05:26:48;;;;;;;15.27;7.40;;;5.50;77.80;;;;;;4385970;29;20071;-70
2021/11/21 05:29:04;;;;;;;14.13;7.47;;;5.50;77.80;;;;;;4387901;29;20071;-71
2021/11/21 05:31:22;;;;;;;13.90;7.45;;;5.50;77.90;;;;;;4386104;30;20062;-71
2021/11/21 05:33:40;;;;;;;14.73;7.90;;;5.50;77.90;;;;;;4386571;30;20526;-71
2021/11/21 05:35:58;;;;;;;13.05;7.18;;;5.50;77.80;;;;;;4387280;29;20102;-70
2021/11/21 05:38:14;;;;;;;15.63;7.97;;;5.50;77.70;;;;;;4387707;29;20043;-71
2021/11/21 05:40:33;;;;;;;14.95;8.10;;;5.50;77.70;;;;;;4390058;29;20062;-71
2021/11/21 05:42:50;;;;;;;15.13;7.88;;;5.50;77.70;;;;;;4389742;30;20447;-71
2021/11/21 05:45:07;;;;;;;15.98;7.68;;;5.50;77.70;;;;;;4389218;30;20112;-70
2021/11/21 05:47:24;;;;;;;13.45;7.07;;;5.50;77.60;;;;;;4389634;30;20089;-71
2021/11/21 05:49:44;;;;;;;13.68;7.53;;;5.50;77.60;;;;;;4390741;29;20055;-71
2021/11/21 05:52:04;;;;;;;16.08;7.70;;;5.50;77.40;;;;;;4390614;29;20420;-71
2021/11/21 05:54:21;;;;;;;13.57;7.00;;;5.40;77.30;;;;;;4390573;30;20055;-71
2021/11/21 05:56:38;;;;;;;15.48;7.63;;;5.50;77.40;;;;;;4389264;29;20411;-71
2021/11/21 05:58:55;;;;;;;17.92;7.60;;;5.40;77.40;;;;;;4390731;29;20043;-71
2021/11/21 06:01:11;;;;;;;14.90;7.45;;;5.40;77.30;;;;;;4388969;30;20051;-71
2021/11/21 06:03:28;;;;;;;15.55;8.43;;;5.40;77.30;;;;;;4390759;29;20059;-71
2021/11/21 06:05:45;;;;;;;18.20;8.15;;;5.40;77.40;;;;;;4388725;30;20059;-70
2021/11/21 06:08:06;;;;;;;19.25;9.27;;;5.40;77.40;;;;;;4389519;30;20126;-71
2021/11/21 06:10:23;;;;;;;17.25;8.63;;;5.40;77.40;;;;;;4388819;30;20418;-72
2021/11/21 06:12:42;;;;;;;17.45;8.93;;;5.30;77.40;;;;;;4389381;30;20051;-71
2021/11/21 06:15:01;;;;;;;18.73;7.90;;;5.30;77.30;;;;;;4388767;30;20527;-69
2021/11/21 06:17:20;;;;;;;20.15;9.63;;;5.30;77.30;;;;;;4389297;30;20055;-70
2021/11/21 06:19:38;;;;;;;17.02;9.00;;;5.30;77.30;;;;;;4388702;30;20127;-70
2021/11/21 06:21:56;;;;;;;16.23;9.13;;;5.30;77.30;;;;;;4389210;30;20074;-70
2021/11/21 06:24:12;;;;;;;17.35;8.98;;;5.30;77.30;;;;;;4389891;29;20519;-68
2021/11/21 06:26:28;;;;;;;16.00;8.40;;;5.40;77.30;;;;;;4390092;29;20055;-71
2021/11/21 06:28:47;;;;;;;17.35;9.07;;;5.40;77.20;;;;;;4388789;30;20075;-71
2021/11/21 06:31:03;;;;;;;14.95;8.13;;;5.40;77.90;;;;;;4388592;30;20066;-71
2021/11/21 06:33:22;;;;;;;14.00;7.63;;;5.40;77.10;;;;;;4389112;30;20534;-71
2021/11/21 06:35:39;;;;;;;16.17;8.25;;;5.40;77.00;;;;;;4389726;29;20078;-70
2021/11/21 06:37:59;;;;;;;14.10;8.43;;;5.40;77.80;;;;;;4390249;29;20147;-72
2021/11/21 06:40:16;;;;;;;15.88;8.48;;;5.40;77.10;;;;;;4388300;30;20134;-71
2021/11/21 06:42:33;;;;;;;15.25;7.85;;;5.40;77.10;;;;;;4390217;29;20074;-70
2021/11/21 06:44:49;;;;;;;13.90;8.15;;;5.50;77.10;;;;;;4388209;30;20047;-70
2021/11/21 06:47:06;;;;;;;14.45;7.35;;;5.50;77.10;;;;;;4390064;29;20431;-71
2021/11/21 06:49:23;;;;;;;15.10;7.72;;;5.50;77.10;;;;;;4389504;29;20083;-72
2021/11/21 06:51:42;;;;;;;16.17;8.43;;;5.50;77.00;;;;;;4389880;29;20051;-71
2021/11/21 06:54:03;;;;;;;14.38;8.38;;;5.60;77.00;;;;;;4388140;30;20067;-70
2021/11/21 06:56:19;;;;;;;17.13;7.63;;;5.60;76.90;;;;;;4389843;29;20096;-72
2021/11/21 06:58:35;;;;;;;16.50;8.70;;;5.60;76.90;;;;;;4389323;29;20423;-71
2021/11/21 07:00:52;;;;;;;22.75;10.18;;;5.70;77.40;;;;;;4389784;29;20590;-72
2021/11/21 07:03:09;;;;;;;18.77;9.35;;;5.70;76.90;;;;;;4388085;30;20145;-71
2021/11/21 07:05:25;;;;;;;16.23;8.70;;;5.70;76.90;;;;;;4397339;29;20574;-72
2021/11/21 07:07:43;;;;;;;17.05;9.07;;;5.80;76.90;;;;;;4404597;29;20061;-70
2021/11/21 07:10:00;;;;;;;17.88;9.38;;;5.80;76.90;;;;;;4404585;29;20058;-70
2021/11/21 07:12:17;;;;;;;21.15;11.32;;;5.90;77.00;;;;;;4404747;29;20054;-70
2021/11/21 07:14:53;;;;;;;38.22;18.55;;;6.00;77.00;;;;;;4405585;29;20063;-70
2021/11/21 07:17:10;;;;;;;45.22;22.77;;;6.00;76.90;;;;;;4404938;29;20081;-69
2021/11/21 07:19:26;;;;;;;29.20;14.77;;;6.10;76.90;;;;;;4405314;29;20396;-70
2021/11/21 07:21:44;;;;;;;20.92;10.70;;;6.20;76.80;;;;;;4406249;29;20050;-69
2021/11/21 07:24:00;;;;;;;24.98;13.38;;;6.30;76.80;;;;;;4405325;29;20082;-72
2021/11/21 07:26:18;;;;;;;23.05;12.38;;;6.40;76.80;;;;;;4404606;29;20055;-71
2021/11/21 07:28:37;;;;;;;18.80;10.35;;;6.40;76.70;;;;;;4404190;29;20125;-71
2021/11/21 07:30:55;;;;;;;17.67;9.35;;;6.50;76.70;;;;;;4404524;29;20112;-70
2021/11/21 07:33:12;;;;;;;17.27;9.55;;;6.50;76.70;;;;;;4405341;29;20078;-71
2021/11/21 07:35:28;;;;;;;16.30;9.30;;;6.60;76.60;;;;;;4404565;29;20047;-70
2021/11/21 07:37:45;;;;;;;23.13;10.95;;;6.70;76.60;;;;;;4404005;29;20085;-70
2021/11/21 07:40:02;;;;;;;23.10;11.85;;;6.70;76.50;;;;;;4405547;29;20522;-70
2021/11/21 07:42:20;;;;;;;33.97;13.65;;;6.80;76.50;;;;;;4404129;29;20129;-69
2021/11/21 07:44:39;;;;;;;26.35;13.32;;;6.80;76.60;;;;;;4405379;29;20070;-70
2021/11/21 07:46:55;;;;;;;28.25;14.18;;;6.90;76.70;;;;;;4405781;29;20438;-72
2021/11/21 07:49:12;;;;;;;26.50;14.25;;;6.90;76.80;;;;;;4405296;29;20054;-71
2021/11/21 07:51:29;;;;;;;51.53;25.27;;;6.90;76.90;;;;;;4404331;29;20074;-71
2021/11/21 07:53:45;;;;;;;58.58;30.50;;;7.00;77.10;;;;;;4404100;29;20542;-72
2021/11/21 07:56:02;;;;;;;55.72;29.90;;;7.00;77.20;;;;;;4402745;29;20051;-71
2021/11/21 07:58:19;;;;;;;34.80;17.85;;;7.00;77.30;;;;;;4403779;29;20043;-71
2021/11/21 08:00:36;;;;;;;26.45;15.35;;;7.10;77.40;;;;;;4403487;29;20439;-72
2021/11/21 08:02:57;;;;;;;26.45;14.40;;;7.10;77.40;;;;;;4403623;29;20099;-71
2021/11/21 08:05:13;;;;;;;29.02;14.95;;;7.10;77.50;;;;;;4404560;29;20059;-72
2021/11/21 08:07:30;;;;;;;26.45;15.30;;;7.20;77.60;;;;;;4403941;29;20126;-72
2021/11/21 08:09:49;;;;;;;25.80;14.23;;;7.20;78.30;;;;;;4403383;29;20051;-72
2021/11/21 08:12:07;;;;;;;25.65;13.48;;;7.30;77.60;;;;;;4402513;29;20076;-72
2021/11/21 08:14:25;;;;;;;25.05;13.77;;;7.30;77.60;;;;;;4403377;29;20059;-72
2021/11/21 08:16:42;;;;;;;26.33;14.52;;;7.40;77.60;;;;;;4402763;29;20142;-71
2021/11/21 08:18:58;;;;;;;29.30;15.55;;;7.40;77.50;;;;;;4401836;29;20074;-72
2021/11/21 08:21:15;;;;;;;29.20;15.13;;;7.50;77.60;;;;;;4401329;29;20055;-71
2021/11/21 08:23:34;;;;;;;33.85;17.00;;;7.50;77.50;;;;;;4403370;29;20050;-71
2021/11/21 08:25:54;;;;;;;35.25;18.42;;;7.50;77.50;;;;;;4404985;29;20055;-71
2021/11/21 08:28:13;;;;;;;41.58;19.65;;;7.60;77.60;;;;;;4403177;29;20051;-71
2021/11/21 08:30:35;;;;;;;39.72;20.50;;;7.60;77.40;;;;;;4405083;29;20058;-72
2021/11/21 08:32:52;;;;;;;47.92;24.05;;;7.60;77.60;;;;;;4404163;29;20082;-71
2021/11/21 08:35:09;;;;;;;53.60;26.02;;;7.70;77.70;;;;;;4405027;29;20066;-71
2021/11/21 08:37:25;;;;;;;69.80;30.40;;;7.70;77.70;;;;;;4404073;29;20081;-71
2021/11/21 08:39:42;;;;;;;71.45;30.65;;;7.80;77.60;;;;;;4404891;29;20054;-71
2021/11/21 08:41:59;;;;;;;73.97;31.67;;;7.90;77.60;;;;;;4404415;29;20173;-70
2021/11/21 08:44:18;;;;;;;72.75;32.22;;;7.90;77.60;;;;;;4403459;29;20134;-71
2021/11/21 08:46:36;;;;;;;69.25;31.60;;;8.00;77.60;;;;;;4402941;29;20554;-70
2021/11/21 08:48:53;;;;;;;69.95;32.97;;;8.00;77.50;;;;;;4404682;29;20046;-74
2021/11/21 08:51:10;;;;;;;70.05;32.28;;;8.10;77.60;;;;;;4404312;29;20125;-73
2021/11/21 08:53:27;;;;;;;65.85;29.23;;;8.20;77.60;;;;;;4404437;29;20089;-72
2021/11/21 08:55:43;;;;;;;67.15;29.55;;;8.20;77.60;;;;;;4403136;29;20053;-73
2021/11/21 08:58:00;;;;;;;66.32;33.53;;;8.20;77.60;;;;;;4403022;29;20080;-74
2021/11/21 09:00:17;;;;;;;65.97;31.08;;;8.30;77.60;;;;;;4403010;29;20074;-73
2021/11/21 09:02:35;;;;;;;64.60;28.98;;;8.30;77.60;;;;;;4402844;29;20047;-73
2021/11/21 09:04:52;;;;;;;62.30;29.05;;;8.40;77.60;;;;;;4404211;29;20063;-73
2021/11/21 09:07:09;;;;;;;67.13;29.05;;;8.40;77.70;;;;;;4404157;29;20499;-76
2021/11/21 09:09:25;;;;;;;64.68;29.20;;;8.50;77.50;;;;;;4403263;29;20050;-72
2021/11/21 09:11:42;;;;;;;65.63;31.25;;;8.50;77.40;;;;;;4402450;29;20175;-69
2021/11/21 09:13:59;;;;;;;66.38;29.98;;;8.60;77.20;;;;;;4403924;29;20558;-72
2021/11/21 09:16:15;;;;;;;59.10;29.50;;;8.60;77.30;;;;;;4402389;29;20107;-71
2021/11/21 09:18:33;;;;;;;60.97;29.98;;;8.60;77.40;;;;;;4403093;29;20047;-72
2021/11/21 09:20:50;;;;;;;59.67;29.77;;;8.70;77.40;;;;;;4403572;29;20082;-73
2021/11/21 09:23:11;;;;;;;61.00;29.40;;;8.70;77.30;;;;;;4403062;29;20473;-74
2021/11/21 09:25:27;;;;;;;60.45;29.42;;;8.80;77.30;;;;;;4404161;29;20134;-74
2021/11/21 09:27:44;;;;;;;62.60;29.70;;;8.90;77.20;;;;;;4402784;29;20517;-74
2021/11/21 09:30:03;;;;;;;60.63;28.85;;;8.90;77.10;;;;;;4402361;29;20769;-74
2021/11/21 09:32:19;;;;;;;56.03;28.15;;;8.90;76.90;;;;;;4404025;29;20047;-73
2021/11/21 09:34:38;;;;;;;54.53;28.38;;;8.90;76.80;;;;;;4403882;29;20066;-71
2021/11/21 09:36:55;;;;;;;60.00;30.05;;;9.00;76.80;;;;;;4403281;29;20538;-70
2021/11/21 09:39:11;;;;;;;55.42;27.40;;;8.90;76.70;;;;;;4402929;29;20574;-73
2021/11/21 09:41:30;;;;;;;53.75;27.92;;;9.00;76.80;;;;;;4403826;29;20199;-70
2021/11/21 09:43:46;;;;;;;57.63;28.98;;;9.00;76.80;;;;;;4404013;29;20069;-72
2021/11/21 09:46:03;;;;;;;53.58;28.85;;;9.10;76.90;;;;;;4403632;29;20560;-73
2021/11/21 09:48:19;;;;;;;53.42;27.88;;;9.10;76.80;;;;;;4403042;29;20067;-73
2021/11/21 09:50:41;;;;;;;51.72;28.77;;;9.10;76.30;;;;;;4402025;29;20483;-72
2021/11/21 09:52:58;;;;;;;58.35;29.83;;;9.10;76.60;;;;;;4402979;29;20073;-73
2021/11/21 09:55:15;;;;;;;54.47;29.98;;;9.10;76.90;;;;;;4403429;29;20215;-71
2021/11/21 09:57:32;;;;;;;53.13;29.10;;;9.10;76.80;;;;;;4402808;29;20423;-71
2021/11/21 09:59:56;;;;;;;51.78;27.90;;;9.10;76.70;;;;;;4403428;29;20096;-72
2021/11/21 10:02:19;;;;;;;51.47;27.25;;;9.20;76.50;;;;;;4404177;29;20082;-72
2021/11/21 10:04:42;;;;;;;54.00;27.92;;;9.20;76.40;;;;;;4402373;29;20066;-70
2021/11/21 10:07:20;;;;;;;55.00;28.38;;;9.30;76.50;;;;;;4404008;29;20084;-72
2021/11/21 10:09:42;;;;;;;138.75;82.18;;;9.30;76.20;;;;;;4403791;29;20047;-73
2021/11/21 10:12:03;;;;;;;72.03;43.00;;;9.30;76.20;;;;;;4402045;29;20156;-72
2021/11/21 10:14:20;;;;;;;49.67;27.42;;;9.30;76.20;;;;;;4402728;29;20414;-72
2021/11/21 10:16:37;;;;;;;47.60;27.83;;;9.40;76.20;;;;;;4401773;29;20545;-71
2021/11/21 10:18:58;;;;;;;46.63;27.75;;;9.40;76.10;;;;;;4402929;29;20086;-73
2021/11/21 10:21:20;;;;;;;52.80;28.92;;;9.40;76.00;;;;;;4403294;29;20050;-71
2021/11/21 10:23:42;;;;;;;57.03;30.05;;;9.40;76.00;;;;;;4403097;29;20434;-70
2021/11/21 10:25:58;;;;;;;50.45;30.52;;;9.50;76.00;;;;;;4404980;29;20061;-73
2021/11/21 10:28:18;;;;;;;48.17;28.02;;;9.50;75.80;;;;;;4405527;29;20487;-71
2021/11/21 10:30:53;;;;;;;49.75;28.30;;;9.60;75.80;;;;;;4405072;29;20074;-72
2021/11/21 10:33:10;;;;;;;48.92;29.27;;;9.60;75.70;;;;;;4406542;29;20190;-74
2021/11/21 10:35:26;;;;;;;50.90;27.90;;;9.70;75.60;;;;;;4406437;29;20112;-74
2021/11/21 10:37:43;;;;;;;47.05;26.83;;;9.70;75.50;;;;;;4406720;29;20078;-73
2021/11/21 10:40:03;;;;;;;42.78;26.95;;;9.80;75.30;;;;;;4405533;29;20050;-72
2021/11/21 10:42:24;;;;;;;45.28;26.77;;;9.90;75.20;;;;;;4406113;29;20483;-73
2021/11/21 10:44:49;;;;;;;49.75;27.70;;;9.90;75.10;;;;;;4406891;29;20078;-73
2021/11/21 10:47:09;;;;;;;48.85;29.20;;;10.00;75.00;;;;;;4403854;29;20046;-73
2021/11/21 10:49:29;;;;;;;45.13;27.88;;;10.00;74.90;;;;;;4404746;29;20063;-74
2021/11/21 10:51:46;;;;;;;40.58;24.55;;;10.00;74.80;;;;;;4405022;29;20090;-73
2021/11/21 10:54:03;;;;;;;44.67;26.40;;;10.10;74.70;;;;;;4405173;29;20055;-73
2021/11/21 10:56:21;;;;;;;46.55;26.42;;;10.10;74.60;;;;;;4403451;29;20344;-72
2021/11/21 10:58:46;;;;;;;62.45;35.60;;;10.20;74.50;;;;;;4405456;29;20059;-71
2021/11/21 11:01:07;;;;;;;48.00;27.45;;;10.20;74.40;;;;;;4403652;29;20502;-73
2021/11/21 11:03:26;;;;;;;50.72;27.98;;;10.20;74.30;;;;;;4403761;29;20062;-72
2021/11/21 11:05:43;;;;;;;46.33;26.60;;;10.30;74.20;;;;;;4404769;29;20519;-71
2021/11/21 11:08:02;;;;;;;61.58;35.08;;;10.30;74.10;;;;;;4405264;29;20058;-72
2021/11/21 11:10:20;;;;;;;42.05;24.23;;;10.40;74.10;;;;;;4404656;29;20403;-71
2021/11/21 11:12:39;;;;;;;37.70;21.73;;;10.40;74.00;;;;;;4405826;29;20107;-73
2021/11/21 11:14:56;;;;;;;40.33;24.38;;;10.50;74.00;;;;;;4405095;29;20061;-73
2021/11/21 11:17:13;;;;;;;39.00;23.08;;;10.50;74.00;;;;;;4405392;29;20073;-72
2021/11/21 11:19:32;;;;;;;36.60;21.95;;;10.60;74.00;;;;;;4405041;29;20082;-74
2021/11/21 11:21:50;;;;;;;33.88;19.80;;;10.60;73.80;;;;;;4405244;29;20410;-73
2021/11/21 11:24:07;;;;;;;35.15;20.63;;;10.80;73.70;;;;;;4405140;29;20584;-72
2021/11/21 11:26:25;;;;;;;37.38;20.48;;;10.80;73.60;;;;;;4405851;29;20047;-73
2021/11/21 11:28:51;;;;;;;35.08;20.58;;;10.90;73.60;;;;;;4405081;29;20476;-73
2021/11/21 11:31:23;;;;;;;30.75;19.00;;;11.00;73.40;;;;;;4405616;29;20057;-73
2021/11/21 11:33:40;;;;;;;35.42;20.00;;;11.20;73.20;;;;;;4405787;29;20471;-73
2021/11/21 11:35:57;;;;;;;34.75;19.50;;;11.30;72.90;;;;;;4405466;29;20054;-73
2021/11/21 11:38:17;;;;;;;32.13;18.77;;;11.40;72.70;;;;;;4404806;29;20052;-72
2021/11/21 11:40:55;;;;;;;32.38;18.73;;;11.50;72.40;;;;;;4405613;29;20495;-73
2021/11/21 11:43:49;;;;;;;30.10;18.60;;;11.60;72.30;;;;;;4403739;29;20075;-72
2021/11/21 11:46:22;;;;;;;29.85;19.20;;;11.70;72.00;;;;;;4404369;29;20530;-73
2021/11/21 11:48:41;;;;;;;31.13;19.38;;;11.70;71.80;;;;;;4403876;29;20051;-74
2021/11/21 11:50:58;;;;;;;36.45;19.42;;;11.80;71.60;;;;;;4405264;29;20085;-76
2021/11/21 11:53:33;;;;;;;32.65;19.70;;;11.80;71.60;;;;;;4405460;29;20514;-73